Relevés horaires Interlaken (Suisse)
| Heure UTC1 | Température [°C] | Vent [km/h] | Hum. [%] | Pres.4 [hPa] | Visi. [Km] | Nébu. [octa] | Préc.5 [mm] | Cond. | |||||
|---|---|---|---|---|---|---|---|---|---|---|---|---|---|
| 2m. | Res. | Ros. | Dir.2 | Vit. | Moy. | Raf.3 | |||||||
| 23:00 | -8.7 | -15.9 | -12.6 | SSO | 18.5 | 20.4 | 31.5 | 73 | 1030.5(-0.6/3h) | -- | -- | -- | -- |
| 22:00 | -8.1 | -15.5 | -12.2 | SSO | 20.4 | 20.4 | 31.5 | 72 | 1030.5(-0.3/3h) | -- | -- | -- | -- |
| 21:00 | -7.4 | -13 | -10.9 | SSO | 13.0 | 22.2 | 33.3 | 76 | 1030.6(0.5/3h) | -- | -- | -- | -- |
| 20:00 | -6.3 | -9.9 | -11.8 | NE | 7.4 | 16.7 | 29.6 | 65 | 1030.5(1.6/3h) | -- | -- | -- | -- |
| 19:00 | -5.9 | -10.7 | -12.2 | N | 11.1 | 22.2 | 33.3 | 61 | 1030.2(2.1/3h) | -- | -- | -- | -- |
| 18:00 | -5.5 | -11.2 | -11.4 | N | 14.8 | 27.8 | 44.4 | 63 | 1029.5(1.6/3h) | -- | -- | 0.1/12h |
-- |
| 17:00 | -4.5 | -9 | -13.8 | N | 11.1 | 20.4 | 29.6 | 48 | 1028.2(0.9/3h) | -- | -- | -- | -- |
| 16:00 | -3.7 | -9.3 | -11.0 | NE | 16.7 | 27.8 | 37.0 | 57 | 1027.4(0.5/3h) | -- | -- | -- | -- |
| 15:00 | -4.5 | -9.9 | -9.5 | ENE | 14.8 | 27.8 | 38.9 | 68 | 1027.5(0.5/3h) | -- | -- | -- | -- |
| 14:00 | -3.9 | -10.2 | -8.1 | NE | 20.4 | 22.2 | 31.5 | 72 | 1027.1(1.0/3h) | -- | -- | -- | -- |
| 13:00 | -4.5 | -9.5 | -8.8 | NE | 13.0 | 16.7 | 31.5 | 72 | 1027(1.4/3h) | -- | -- | -- | -- |
| 12:00 | -4.5 | -9.5 | -6.9 | ENE | 13.0 | 25.9 | 46.3 | 83 | 1026.9(2.0/3h) | -- | -- | 0.1/6h |
-- |
| 11:00 | -4.3 | -9.7 | -7.6 | O | 14.8 | 25.9 | 38.9 | 78 | 1026.1(2.3/3h) | -- | -- | -- | -- |
| 10:00 | -6.0 | -12.5 | -8.9 | OSO | 18.5 | 25.9 | 40.7 | 80 | 1026(2.2/3h) | -- | -- | -- | -- |
| 09:00 | -6.0 | -13.5 | -8.7 | O | 24.1 | 25.9 | 46.3 | 81 | 1025.2(2.2/3h) | -- | -- | -- | -- |
| 08:00 | -6.1 | -13.6 | -8.1 | O | 24.1 | 24.1 | 44.4 | 86 | 1024.2(2.0/3h) | -- | -- | -- | -- |
| 07:00 | -5.8 | -11.9 | -7.3 | O | 16.7 | 24.1 | 44.4 | 89 | 1023.5(2.8/3h) | -- | -- | -- | -- |
| 06:00 | -4.9 | -10 | -10.0 | OSO | 13.0 | 25.9 | 59.3 | 67 | 1022.5(2.4/3h) | -- | -- | 1/12h |
-- |
| 05:00 | -4.4 | -7.7 | -8.8 | NNO | 7.4 | 24.1 | 46.3 | 71 | 1021.5(2.3/3h) | -- | -- | -- | -- |
| 04:00 | -3.9 | -10.8 | -6.5 | O | 24.1 | 24.1 | 46.3 | 82 | 1020(1.3/3h) | -- | -- | -- | -- |
| 03:00 | -2.6 | -7.2 | -7.3 | O | 13.0 | 25.9 | 59.3 | 70 | 1019.3(1.4/3h) | -- | -- | -- | -- |
| 02:00 | -1.4 | -7.1 | -6.5 | OSO | 20.4 | 22.2 | 46.3 | 68 | 1018.2(2.0/3h) | -- | -- | -- | -- |
| 01:00 | -0.7 | -2.7 | -6.2 | SSE | 5.6 | 25.9 | 59.3 | 66 | 1017.7(1.8/3h) | -- | -- | -- | -- |
| 00:00 | -0.4 | -3.6 | -5.2 | O | 9.3 | 25.9 | 59.3 | 70 | 1017.2(0.9/3h) | -- | -- | 1/6h |
-- |
1 Coordinated Universal Time. Actuellement il est 06:00 locale et 04:00 UTC.
2 Le vent souffle depuis la direction indiquée vers la direction oposée.
3 Les rafales max. sont disponible 40 min après l'heure du relevé.
4 Pour les stations d'altitude (plus de 600m) le géopotentiel du niveau le plus proche de la pression obligatoire est indiqué.
5 Les stations disposant d'un diffuseur peuvent indiquer "trace". Cela signifie que des précipitations ont touchés le sol mais que la quantité est inférieure à 0.1 mm.
Copyright
Les données affichées sur cette page sont la propriété exclusive de Météo Suisse.
| Température [°C] | Vent [km/h] | Ensoleillement4 [h] | Precipitations totale5 [mm] | Pression [Hpa] | |||
|---|---|---|---|---|---|---|---|
| Min1 | Max.2 | Moy.3 | Max. | Min | Max. | ||
| -4.9 | -3.3 | 23.8 | 59.3 | 3 h 54 min | 0.1 | 1017.2 | 1030.6 |
1 Température minimale relevée entre 18:00 UTC la veille et 18:00 UTC le jour donné.
2 Température maximale relevée entre 06:00 UTC le jour donné et 06:00 UTC le lendemain.
3 Vent moyen de la journée basé sur les relevés horaires.
4 Ensoleillement en heures relevé entre 06:00 UTC la veille et 06:00 UTC le jour donné.
5 Précipitations totales tombées entre 06:00 UTC la jour donné et 06:00 UTC le lendemain.